sensor_id;sensor_type;location;lat;lon;timestamp;P1;durP1;ratioP1;P2;durP2;ratioP2
15929;SDS011;8064;51.142;4.780;2023-01-05T00:01:03;22.67;;;4.53;;
15929;SDS011;8064;51.142;4.780;2023-01-05T00:03:32;22.93;;;4.83;;
15929;SDS011;8064;51.142;4.780;2023-01-05T00:05:59;21.37;;;4.93;;
15929;SDS011;8064;51.142;4.780;2023-01-05T00:08:26;23.03;;;4.47;;
15929;SDS011;8064;51.142;4.780;2023-01-05T00:10:52;22.50;;;5.17;;
15929;SDS011;8064;51.142;4.780;2023-01-05T00:13:36;25.43;;;5.17;;
15929;SDS011;8064;51.142;4.780;2023-01-05T00:16:21;22.33;;;5.43;;
15929;SDS011;8064;51.142;4.780;2023-01-05T00:19:05;19.80;;;4.27;;
15929;SDS011;8064;51.142;4.780;2023-01-05T00:21:51;19.37;;;4.60;;
15929;SDS011;8064;51.142;4.780;2023-01-05T00:24:35;25.60;;;5.17;;
15929;SDS011;8064;51.142;4.780;2023-01-05T00:27:01;18.37;;;4.03;;
15929;SDS011;8064;51.142;4.780;2023-01-05T00:29:27;23.77;;;4.77;;
15929;SDS011;8064;51.142;4.780;2023-01-05T00:31:53;24.77;;;5.00;;
15929;SDS011;8064;51.142;4.780;2023-01-05T00:34:18;22.07;;;5.60;;
15929;SDS011;8064;51.142;4.780;2023-01-05T00:36:44;19.60;;;4.13;;
15929;SDS011;8064;51.142;4.780;2023-01-05T00:39:10;26.77;;;5.00;;
15929;SDS011;8064;51.142;4.780;2023-01-05T00:41:35;22.33;;;5.70;;
15929;SDS011;8064;51.142;4.780;2023-01-05T00:44:01;21.30;;;4.70;;
15929;SDS011;8064;51.142;4.780;2023-01-05T00:46:27;21.10;;;4.53;;
15929;SDS011;8064;51.142;4.780;2023-01-05T00:48:53;26.17;;;5.33;;
15929;SDS011;8064;51.142;4.780;2023-01-05T00:51:18;24.23;;;4.87;;
15929;SDS011;8064;51.142;4.780;2023-01-05T00:53:44;18.60;;;4.50;;
15929;SDS011;8064;51.142;4.780;2023-01-05T00:56:12;22.10;;;4.70;;
15929;SDS011;8064;51.142;4.780;2023-01-05T00:58:39;26.67;;;5.73;;
15929;SDS011;8064;51.142;4.780;2023-01-05T01:01:10;25.37;;;5.37;;
15929;SDS011;8064;51.142;4.780;2023-01-05T01:03:36;21.80;;;5.00;;
15929;SDS011;8064;51.142;4.780;2023-01-05T01:06:03;21.60;;;4.90;;
15929;SDS011;8064;51.142;4.780;2023-01-05T01:08:28;21.77;;;4.17;;
15929;SDS011;8064;51.142;4.780;2023-01-05T01:10:54;20.47;;;4.63;;
15929;SDS011;8064;51.142;4.780;2023-01-05T01:13:21;24.43;;;5.80;;
15929;SDS011;8064;51.142;4.780;2023-01-05T01:15:48;22.57;;;4.50;;
15929;SDS011;8064;51.142;4.780;2023-01-05T01:18:14;26.67;;;5.53;;
15929;SDS011;8064;51.142;4.780;2023-01-05T01:20:40;22.10;;;5.63;;
15929;SDS011;8064;51.142;4.780;2023-01-05T01:23:05;28.07;;;4.33;;
15929;SDS011;8064;51.142;4.780;2023-01-05T01:25:31;20.63;;;4.90;;
15929;SDS011;8064;51.142;4.780;2023-01-05T01:27:57;21.97;;;4.23;;
15929;SDS011;8064;51.142;4.780;2023-01-05T01:30:23;29.10;;;4.97;;
15929;SDS011;8064;51.142;4.780;2023-01-05T01:32:48;19.10;;;4.20;;
15929;SDS011;8064;51.142;4.780;2023-01-05T01:35:14;29.07;;;5.77;;
15929;SDS011;8064;51.142;4.780;2023-01-05T01:37:40;19.97;;;4.93;;
15929;SDS011;8064;51.142;4.780;2023-01-05T01:40:06;19.57;;;4.67;;
15929;SDS011;8064;51.142;4.780;2023-01-05T01:42:32;19.10;;;4.50;;
15929;SDS011;8064;51.142;4.780;2023-01-05T01:44:59;24.10;;;4.20;;
15929;SDS011;8064;51.142;4.780;2023-01-05T01:50:28;22.07;;;4.60;;
15929;SDS011;8064;51.142;4.780;2023-01-05T01:55:44;23.43;;;5.00;;
15929;SDS011;8064;51.142;4.780;2023-01-05T01:58:12;20.37;;;4.70;;
15929;SDS011;8064;51.142;4.780;2023-01-05T02:00:41;22.83;;;4.67;;
15929;SDS011;8064;51.142;4.780;2023-01-05T02:03:07;21.93;;;4.43;;
15929;SDS011;8064;51.142;4.780;2023-01-05T02:05:34;23.13;;;5.07;;
15929;SDS011;8064;51.142;4.780;2023-01-05T02:08:02;26.70;;;4.97;;
15929;SDS011;8064;51.142;4.780;2023-01-05T02:13:12;24.40;;;4.50;;
15929;SDS011;8064;51.142;4.780;2023-01-05T02:15:57;19.97;;;4.30;;
15929;SDS011;8064;51.142;4.780;2023-01-05T02:24:16;23.07;;;4.87;;
15929;SDS011;8064;51.142;4.780;2023-01-05T02:34:37;17.20;;;4.23;;
15929;SDS011;8064;51.142;4.780;2023-01-05T02:40:02;17.57;;;4.37;;
15929;SDS011;8064;51.142;4.780;2023-01-05T02:42:37;22.87;;;4.07;;
15929;SDS011;8064;51.142;4.780;2023-01-05T02:45:06;18.93;;;4.13;;
15929;SDS011;8064;51.142;4.780;2023-01-05T02:47:39;16.93;;;4.43;;
15929;SDS011;8064;51.142;4.780;2023-01-05T02:52:50;21.07;;;4.77;;
15929;SDS011;8064;51.142;4.780;2023-01-05T02:55:27;19.90;;;4.30;;
15929;SDS011;8064;51.142;4.780;2023-01-05T02:58:08;15.10;;;4.17;;
15929;SDS011;8064;51.142;4.780;2023-01-05T03:00:43;18.13;;;4.77;;
15929;SDS011;8064;51.142;4.780;2023-01-05T03:03:16;21.03;;;4.40;;
15929;SDS011;8064;51.142;4.780;2023-01-05T03:05:49;22.50;;;4.30;;
15929;SDS011;8064;51.142;4.780;2023-01-05T03:08:19;20.67;;;4.27;;
15929;SDS011;8064;51.142;4.780;2023-01-05T03:13:50;23.37;;;5.53;;
15929;SDS011;8064;51.142;4.780;2023-01-05T03:16:26;18.47;;;4.70;;
15929;SDS011;8064;51.142;4.780;2023-01-05T03:18:57;23.67;;;5.77;;
15929;SDS011;8064;51.142;4.780;2023-01-05T03:21:44;19.93;;;4.70;;
15929;SDS011;8064;51.142;4.780;2023-01-05T03:24:30;24.83;;;5.30;;
15929;SDS011;8064;51.142;4.780;2023-01-05T03:27:15;21.57;;;4.70;;
15929;SDS011;8064;51.142;4.780;2023-01-05T03:30:01;20.40;;;4.23;;
15929;SDS011;8064;51.142;4.780;2023-01-05T03:32:49;20.77;;;4.60;;
15929;SDS011;8064;51.142;4.780;2023-01-05T03:35:39;21.90;;;4.70;;
15929;SDS011;8064;51.142;4.780;2023-01-05T03:38:23;21.50;;;4.80;;
15929;SDS011;8064;51.142;4.780;2023-01-05T03:40:58;22.97;;;3.90;;
15929;SDS011;8064;51.142;4.780;2023-01-05T03:43:27;21.77;;;4.40;;
15929;SDS011;8064;51.142;4.780;2023-01-05T03:45:54;24.60;;;4.73;;
15929;SDS011;8064;51.142;4.780;2023-01-05T03:48:21;19.90;;;4.33;;
15929;SDS011;8064;51.142;4.780;2023-01-05T03:50:49;24.73;;;5.50;;
15929;SDS011;8064;51.142;4.780;2023-01-05T03:53:15;26.97;;;5.60;;
15929;SDS011;8064;51.142;4.780;2023-01-05T03:55:41;27.83;;;5.43;;
15929;SDS011;8064;51.142;4.780;2023-01-05T03:58:07;20.13;;;4.83;;
15929;SDS011;8064;51.142;4.780;2023-01-05T04:00:33;23.13;;;4.63;;
15929;SDS011;8064;51.142;4.780;2023-01-05T04:02:59;25.17;;;4.80;;
15929;SDS011;8064;51.142;4.780;2023-01-05T04:05:24;23.13;;;4.97;;
15929;SDS011;8064;51.142;4.780;2023-01-05T04:07:50;24.87;;;5.73;;
15929;SDS011;8064;51.142;4.780;2023-01-05T04:10:16;23.90;;;6.30;;
15929;SDS011;8064;51.142;4.780;2023-01-05T04:12:42;15.17;;;4.90;;
15929;SDS011;8064;51.142;4.780;2023-01-05T04:15:10;33.13;;;5.93;;
15929;SDS011;8064;51.142;4.780;2023-01-05T04:17:36;24.33;;;4.73;;
15929;SDS011;8064;51.142;4.780;2023-01-05T04:20:02;23.67;;;4.60;;
15929;SDS011;8064;51.142;4.780;2023-01-05T04:22:30;22.93;;;4.73;;
15929;SDS011;8064;51.142;4.780;2023-01-05T04:24:56;20.97;;;5.20;;
15929;SDS011;8064;51.142;4.780;2023-01-05T04:27:22;23.00;;;4.50;;
15929;SDS011;8064;51.142;4.780;2023-01-05T04:29:47;23.33;;;4.43;;
15929;SDS011;8064;51.142;4.780;2023-01-05T04:32:13;26.60;;;4.90;;
15929;SDS011;8064;51.142;4.780;2023-01-05T04:34:39;17.10;;;4.77;;
15929;SDS011;8064;51.142;4.780;2023-01-05T04:37:05;27.67;;;5.43;;
15929;SDS011;8064;51.142;4.780;2023-01-05T04:39:30;22.80;;;5.07;;
15929;SDS011;8064;51.142;4.780;2023-01-05T04:41:56;23.13;;;5.17;;
15929;SDS011;8064;51.142;4.780;2023-01-05T04:44:22;23.20;;;5.03;;
15929;SDS011;8064;51.142;4.780;2023-01-05T04:46:48;25.70;;;6.70;;
15929;SDS011;8064;51.142;4.780;2023-01-05T04:49:13;18.27;;;4.47;;
15929;SDS011;8064;51.142;4.780;2023-01-05T04:51:39;18.83;;;4.33;;
15929;SDS011;8064;51.142;4.780;2023-01-05T04:54:05;26.57;;;5.83;;
15929;SDS011;8064;51.142;4.780;2023-01-05T04:56:30;20.90;;;4.63;;
15929;SDS011;8064;51.142;4.780;2023-01-05T04:58:56;21.10;;;4.97;;
15929;SDS011;8064;51.142;4.780;2023-01-05T05:01:22;23.00;;;5.10;;
15929;SDS011;8064;51.142;4.780;2023-01-05T05:03:48;25.07;;;4.97;;
15929;SDS011;8064;51.142;4.780;2023-01-05T05:06:13;23.83;;;6.37;;
15929;SDS011;8064;51.142;4.780;2023-01-05T05:08:41;21.50;;;4.33;;
15929;SDS011;8064;51.142;4.780;2023-01-05T05:11:07;19.77;;;4.47;;
15929;SDS011;8064;51.142;4.780;2023-01-05T05:13:33;21.53;;;5.43;;
15929;SDS011;8064;51.142;4.780;2023-01-05T05:15:59;21.70;;;4.83;;
15929;SDS011;8064;51.142;4.780;2023-01-05T05:18:25;19.77;;;5.00;;
15929;SDS011;8064;51.142;4.780;2023-01-05T05:20:51;21.30;;;4.33;;
15929;SDS011;8064;51.142;4.780;2023-01-05T05:23:17;24.70;;;4.60;;
15929;SDS011;8064;51.142;4.780;2023-01-05T05:25:43;14.60;;;4.47;;
15929;SDS011;8064;51.142;4.780;2023-01-05T05:28:09;25.13;;;5.80;;
15929;SDS011;8064;51.142;4.780;2023-01-05T05:30:37;28.60;;;5.57;;
15929;SDS011;8064;51.142;4.780;2023-01-05T05:33:03;20.53;;;5.13;;
15929;SDS011;8064;51.142;4.780;2023-01-05T05:35:29;19.83;;;4.43;;
15929;SDS011;8064;51.142;4.780;2023-01-05T05:37:55;24.60;;;4.47;;
15929;SDS011;8064;51.142;4.780;2023-01-05T05:40:21;21.97;;;4.53;;
15929;SDS011;8064;51.142;4.780;2023-01-05T05:42:46;22.10;;;5.20;;
15929;SDS011;8064;51.142;4.780;2023-01-05T05:45:12;22.37;;;4.63;;
15929;SDS011;8064;51.142;4.780;2023-01-05T05:47:38;21.60;;;4.83;;
15929;SDS011;8064;51.142;4.780;2023-01-05T05:50:04;27.13;;;5.40;;
15929;SDS011;8064;51.142;4.780;2023-01-05T05:52:30;21.00;;;4.80;;
15929;SDS011;8064;51.142;4.780;2023-01-05T05:54:56;21.70;;;5.30;;
15929;SDS011;8064;51.142;4.780;2023-01-05T05:57:21;20.10;;;4.80;;
15929;SDS011;8064;51.142;4.780;2023-01-05T05:59:47;20.53;;;5.17;;
15929;SDS011;8064;51.142;4.780;2023-01-05T06:02:13;22.53;;;4.93;;
15929;SDS011;8064;51.142;4.780;2023-01-05T06:04:40;21.13;;;5.03;;
15929;SDS011;8064;51.142;4.780;2023-01-05T06:07:06;23.20;;;5.43;;
15929;SDS011;8064;51.142;4.780;2023-01-05T06:09:32;21.60;;;4.93;;
15929;SDS011;8064;51.142;4.780;2023-01-05T06:11:59;24.80;;;5.40;;
15929;SDS011;8064;51.142;4.780;2023-01-05T06:14:24;20.90;;;4.93;;
15929;SDS011;8064;51.142;4.780;2023-01-05T06:16:50;21.67;;;5.00;;
15929;SDS011;8064;51.142;4.780;2023-01-05T06:19:16;24.67;;;5.10;;
15929;SDS011;8064;51.142;4.780;2023-01-05T06:21:42;27.07;;;5.33;;
15929;SDS011;8064;51.142;4.780;2023-01-05T06:24:07;26.00;;;5.93;;
15929;SDS011;8064;51.142;4.780;2023-01-05T06:26:33;25.43;;;5.40;;
15929;SDS011;8064;51.142;4.780;2023-01-05T06:28:59;24.20;;;5.40;;
15929;SDS011;8064;51.142;4.780;2023-01-05T06:31:25;22.73;;;4.97;;
15929;SDS011;8064;51.142;4.780;2023-01-05T06:33:51;22.37;;;5.27;;
15929;SDS011;8064;51.142;4.780;2023-01-05T06:36:16;28.50;;;6.03;;
15929;SDS011;8064;51.142;4.780;2023-01-05T06:38:42;21.90;;;4.97;;
15929;SDS011;8064;51.142;4.780;2023-01-05T06:41:09;24.90;;;5.00;;
15929;SDS011;8064;51.142;4.780;2023-01-05T06:43:34;23.43;;;5.03;;
15929;SDS011;8064;51.142;4.780;2023-01-05T06:46:00;28.43;;;5.70;;
15929;SDS011;8064;51.142;4.780;2023-01-05T06:48:26;31.27;;;5.97;;
15929;SDS011;8064;51.142;4.780;2023-01-05T06:50:52;30.37;;;5.67;;
15929;SDS011;8064;51.142;4.780;2023-01-05T06:53:17;27.43;;;5.73;;
15929;SDS011;8064;51.142;4.780;2023-01-05T06:55:44;25.80;;;5.60;;
15929;SDS011;8064;51.142;4.780;2023-01-05T06:58:09;28.60;;;6.33;;
15929;SDS011;8064;51.142;4.780;2023-01-05T07:00:35;26.30;;;4.80;;
15929;SDS011;8064;51.142;4.780;2023-01-05T07:03:01;26.37;;;5.47;;
15929;SDS011;8064;51.142;4.780;2023-01-05T07:05:27;28.93;;;6.00;;
15929;SDS011;8064;51.142;4.780;2023-01-05T07:07:53;24.27;;;5.53;;
15929;SDS011;8064;51.142;4.780;2023-01-05T07:10:19;24.07;;;5.57;;
15929;SDS011;8064;51.142;4.780;2023-01-05T07:12:45;24.67;;;5.53;;
15929;SDS011;8064;51.142;4.780;2023-01-05T07:15:11;24.60;;;5.60;;
15929;SDS011;8064;51.142;4.780;2023-01-05T07:17:36;22.70;;;5.47;;
15929;SDS011;8064;51.142;4.780;2023-01-05T07:20:03;23.27;;;4.77;;
15929;SDS011;8064;51.142;4.780;2023-01-05T07:22:30;26.33;;;5.93;;
15929;SDS011;8064;51.142;4.780;2023-01-05T07:24:56;33.07;;;6.87;;
15929;SDS011;8064;51.142;4.780;2023-01-05T07:27:22;23.70;;;5.20;;
15929;SDS011;8064;51.142;4.780;2023-01-05T07:29:48;30.70;;;7.30;;
15929;SDS011;8064;51.142;4.780;2023-01-05T07:32:14;26.10;;;5.40;;
15929;SDS011;8064;51.142;4.780;2023-01-05T07:34:40;22.47;;;5.17;;
15929;SDS011;8064;51.142;4.780;2023-01-05T07:37:05;28.57;;;5.43;;
15929;SDS011;8064;51.142;4.780;2023-01-05T07:39:31;21.67;;;6.43;;
15929;SDS011;8064;51.142;4.780;2023-01-05T07:41:57;27.60;;;5.67;;
15929;SDS011;8064;51.142;4.780;2023-01-05T07:44:23;21.37;;;5.37;;
15929;SDS011;8064;51.142;4.780;2023-01-05T07:46:48;29.87;;;6.40;;
15929;SDS011;8064;51.142;4.780;2023-01-05T07:49:14;30.97;;;5.63;;
15929;SDS011;8064;51.142;4.780;2023-01-05T07:51:40;29.03;;;6.53;;
15929;SDS011;8064;51.142;4.780;2023-01-05T07:54:06;30.77;;;5.70;;
15929;SDS011;8064;51.142;4.780;2023-01-05T07:56:32;24.83;;;5.57;;
15929;SDS011;8064;51.142;4.780;2023-01-05T07:58:58;29.07;;;5.80;;
15929;SDS011;8064;51.142;4.780;2023-01-05T08:01:24;23.13;;;5.60;;
15929;SDS011;8064;51.142;4.780;2023-01-05T08:03:50;35.13;;;5.87;;
15929;SDS011;8064;51.142;4.780;2023-01-05T08:06:17;25.73;;;5.00;;
15929;SDS011;8064;51.142;4.780;2023-01-05T08:08:44;23.97;;;5.67;;
15929;SDS011;8064;51.142;4.780;2023-01-05T08:11:11;33.50;;;6.07;;
15929;SDS011;8064;51.142;4.780;2023-01-05T08:13:39;25.87;;;5.40;;
15929;SDS011;8064;51.142;4.780;2023-01-05T08:16:24;24.40;;;5.27;;
15929;SDS011;8064;51.142;4.780;2023-01-05T08:18:51;27.73;;;6.07;;
15929;SDS011;8064;51.142;4.780;2023-01-05T08:21:17;25.47;;;5.77;;
15929;SDS011;8064;51.142;4.780;2023-01-05T08:23:43;25.23;;;5.50;;
15929;SDS011;8064;51.142;4.780;2023-01-05T08:26:13;25.77;;;5.67;;
15929;SDS011;8064;51.142;4.780;2023-01-05T08:28:41;27.30;;;5.80;;
15929;SDS011;8064;51.142;4.780;2023-01-05T08:31:12;25.07;;;6.23;;
15929;SDS011;8064;51.142;4.780;2023-01-05T08:33:40;30.63;;;6.23;;
15929;SDS011;8064;51.142;4.780;2023-01-05T08:36:08;23.60;;;5.27;;
15929;SDS011;8064;51.142;4.780;2023-01-05T08:38:37;29.40;;;5.97;;
15929;SDS011;8064;51.142;4.780;2023-01-05T08:43:42;30.27;;;6.57;;
15929;SDS011;8064;51.142;4.780;2023-01-05T08:46:08;26.03;;;5.97;;
15929;SDS011;8064;51.142;4.780;2023-01-05T08:48:37;27.20;;;6.43;;
15929;SDS011;8064;51.142;4.780;2023-01-05T08:51:02;27.47;;;5.67;;
15929;SDS011;8064;51.142;4.780;2023-01-05T08:53:31;21.87;;;5.63;;
15929;SDS011;8064;51.142;4.780;2023-01-05T08:55:58;31.07;;;6.07;;
15929;SDS011;8064;51.142;4.780;2023-01-05T08:58:29;25.80;;;5.97;;
15929;SDS011;8064;51.142;4.780;2023-01-05T09:00:55;23.90;;;5.67;;
15929;SDS011;8064;51.142;4.780;2023-01-05T09:03:21;27.77;;;6.80;;
15929;SDS011;8064;51.142;4.780;2023-01-05T09:05:47;33.13;;;6.57;;
15929;SDS011;8064;51.142;4.780;2023-01-05T09:08:15;26.60;;;6.77;;
15929;SDS011;8064;51.142;4.780;2023-01-05T09:10:41;22.37;;;6.70;;
15929;SDS011;8064;51.142;4.780;2023-01-05T09:13:07;26.80;;;5.80;;
15929;SDS011;8064;51.142;4.780;2023-01-05T09:15:33;31.17;;;6.00;;
15929;SDS011;8064;51.142;4.780;2023-01-05T09:17:59;26.20;;;5.93;;
15929;SDS011;8064;51.142;4.780;2023-01-05T09:20:25;26.47;;;5.80;;
15929;SDS011;8064;51.142;4.780;2023-01-05T09:22:51;26.63;;;6.03;;
15929;SDS011;8064;51.142;4.780;2023-01-05T09:25:16;29.93;;;6.30;;
15929;SDS011;8064;51.142;4.780;2023-01-05T09:27:42;31.07;;;6.07;;
15929;SDS011;8064;51.142;4.780;2023-01-05T09:30:08;33.50;;;6.57;;
15929;SDS011;8064;51.142;4.780;2023-01-05T09:32:35;30.13;;;6.77;;
15929;SDS011;8064;51.142;4.780;2023-01-05T09:35:01;30.90;;;6.03;;
15929;SDS011;8064;51.142;4.780;2023-01-05T09:37:27;29.20;;;6.23;;
15929;SDS011;8064;51.142;4.780;2023-01-05T09:39:53;27.53;;;5.90;;
15929;SDS011;8064;51.142;4.780;2023-01-05T09:42:19;24.27;;;6.07;;
15929;SDS011;8064;51.142;4.780;2023-01-05T09:44:58;31.80;;;7.17;;
15929;SDS011;8064;51.142;4.780;2023-01-05T09:47:30;25.97;;;5.80;;
15929;SDS011;8064;51.142;4.780;2023-01-05T09:50:03;32.80;;;7.13;;
15929;SDS011;8064;51.142;4.780;2023-01-05T09:52:31;26.03;;;6.37;;
15929;SDS011;8064;51.142;4.780;2023-01-05T09:54:58;24.07;;;6.03;;
15929;SDS011;8064;51.142;4.780;2023-01-05T09:57:25;30.10;;;5.77;;
15929;SDS011;8064;51.142;4.780;2023-01-05T09:59:54;30.53;;;6.23;;
15929;SDS011;8064;51.142;4.780;2023-01-05T10:02:31;23.10;;;6.10;;
15929;SDS011;8064;51.142;4.780;2023-01-05T10:05:04;33.13;;;6.80;;
15929;SDS011;8064;51.142;4.780;2023-01-05T10:13:43;25.93;;;6.10;;
15929;SDS011;8064;51.142;4.780;2023-01-05T10:16:36;30.50;;;6.23;;
15929;SDS011;8064;51.142;4.780;2023-01-05T10:19:05;28.43;;;6.40;;
15929;SDS011;8064;51.142;4.780;2023-01-05T10:21:57;29.27;;;7.00;;
15929;SDS011;8064;51.142;4.780;2023-01-05T10:24:31;30.33;;;6.93;;
15929;SDS011;8064;51.142;4.780;2023-01-05T10:27:25;28.50;;;6.53;;
15929;SDS011;8064;51.142;4.780;2023-01-05T10:38:29;23.77;;;6.33;;
15929;SDS011;8064;51.142;4.780;2023-01-05T10:41:23;19.90;;;6.05;;
15929;SDS011;8064;51.142;4.780;2023-01-05T10:46:29;25.55;;;6.53;;
15929;SDS011;8064;51.142;4.780;2023-01-05T10:48:55;23.20;;;6.38;;
15929;SDS011;8064;51.142;4.780;2023-01-05T10:51:23;25.13;;;7.07;;
15929;SDS011;8064;51.142;4.780;2023-01-05T10:53:49;20.02;;;6.22;;
15929;SDS011;8064;51.142;4.780;2023-01-05T10:56:23;18.30;;;5.93;;
15929;SDS011;8064;51.142;4.780;2023-01-05T10:59:07;22.70;;;6.72;;
15929;SDS011;8064;51.142;4.780;2023-01-05T11:01:35;23.60;;;6.65;;
15929;SDS011;8064;51.142;4.780;2023-01-05T11:04:12;27.17;;;6.38;;
15929;SDS011;8064;51.142;4.780;2023-01-05T11:06:41;23.45;;;6.53;;
15929;SDS011;8064;51.142;4.780;2023-01-05T11:09:21;23.08;;;6.25;;
15929;SDS011;8064;51.142;4.780;2023-01-05T11:11:54;26.17;;;6.43;;
15929;SDS011;8064;51.142;4.780;2023-01-05T11:14:22;23.52;;;6.35;;
15929;SDS011;8064;51.142;4.780;2023-01-05T11:16:50;30.50;;;6.78;;
15929;SDS011;8064;51.142;4.780;2023-01-05T11:19:25;23.13;;;6.03;;
15929;SDS011;8064;51.142;4.780;2023-01-05T11:21:59;24.57;;;6.23;;
15929;SDS011;8064;51.142;4.780;2023-01-05T11:24:28;27.00;;;6.17;;
15929;SDS011;8064;51.142;4.780;2023-01-05T11:26:56;29.60;;;6.50;;
15929;SDS011;8064;51.142;4.780;2023-01-05T11:29:25;21.07;;;5.70;;
15929;SDS011;8064;51.142;4.780;2023-01-05T11:34:25;28.93;;;6.57;;
15929;SDS011;8064;51.142;4.780;2023-01-05T11:36:58;26.47;;;6.50;;
15929;SDS011;8064;51.142;4.780;2023-01-05T11:42:18;24.93;;;5.60;;
15929;SDS011;8064;51.142;4.780;2023-01-05T11:44:57;23.97;;;5.97;;
15929;SDS011;8064;51.142;4.780;2023-01-05T11:50:02;26.00;;;5.93;;
15929;SDS011;8064;51.142;4.780;2023-01-05T11:52:58;27.30;;;6.47;;
15929;SDS011;8064;51.142;4.780;2023-01-05T12:00:52;21.60;;;5.80;;
15929;SDS011;8064;51.142;4.780;2023-01-05T12:06:21;29.40;;;6.97;;
15929;SDS011;8064;51.142;4.780;2023-01-05T12:14:23;24.23;;;7.03;;
15929;SDS011;8064;51.142;4.780;2023-01-05T12:16:54;25.47;;;5.57;;
15929;SDS011;8064;51.142;4.780;2023-01-05T12:30:09;32.13;;;6.60;;
15929;SDS011;8064;51.142;4.780;2023-01-05T12:32:44;28.07;;;5.40;;
15929;SDS011;8064;51.142;4.780;2023-01-05T12:48:59;26.20;;;5.70;;
15929;SDS011;8064;51.142;4.780;2023-01-05T12:53:58;24.40;;;5.60;;
15929;SDS011;8064;51.142;4.780;2023-01-05T12:59:31;26.47;;;5.93;;
15929;SDS011;8064;51.142;4.780;2023-01-05T13:10:27;26.70;;;5.43;;
15929;SDS011;8064;51.142;4.780;2023-01-05T13:13:18;27.07;;;5.50;;
15929;SDS011;8064;51.142;4.780;2023-01-05T13:18:39;27.30;;;5.30;;
15929;SDS011;8064;51.142;4.780;2023-01-05T13:21:19;32.30;;;5.90;;
15929;SDS011;8064;51.142;4.780;2023-01-05T13:23:55;23.67;;;5.53;;
15929;SDS011;8064;51.142;4.780;2023-01-05T13:26:27;28.73;;;6.50;;
15929;SDS011;8064;51.142;4.780;2023-01-05T13:28:55;29.10;;;6.10;;
15929;SDS011;8064;51.142;4.780;2023-01-05T13:34:15;22.83;;;5.33;;
15929;SDS011;8064;51.142;4.780;2023-01-05T13:42:03;29.77;;;5.73;;
15929;SDS011;8064;51.142;4.780;2023-01-05T13:52:56;26.73;;;5.90;;
15929;SDS011;8064;51.142;4.780;2023-01-05T13:55:28;30.60;;;5.60;;
15929;SDS011;8064;51.142;4.780;2023-01-05T13:57:58;26.93;;;5.93;;
15929;SDS011;8064;51.142;4.780;2023-01-05T14:00:34;25.13;;;6.63;;
15929;SDS011;8064;51.142;4.780;2023-01-05T14:03:17;32.37;;;11.27;;
15929;SDS011;8064;51.142;4.780;2023-01-05T14:05:54;27.40;;;6.00;;
15929;SDS011;8064;51.142;4.780;2023-01-05T14:08:32;31.40;;;6.13;;
15929;SDS011;8064;51.142;4.780;2023-01-05T14:11:13;26.77;;;5.83;;
15929;SDS011;8064;51.142;4.780;2023-01-05T14:24:27;29.00;;;6.17;;
15929;SDS011;8064;51.142;4.780;2023-01-05T14:27:09;24.40;;;5.93;;
15929;SDS011;8064;51.142;4.780;2023-01-05T14:35:39;20.63;;;5.10;;
15929;SDS011;8064;51.142;4.780;2023-01-05T14:46:19;19.87;;;4.40;;
15929;SDS011;8064;51.142;4.780;2023-01-05T14:48:56;21.83;;;4.90;;
15929;SDS011;8064;51.142;4.780;2023-01-05T14:51:30;20.53;;;4.90;;
15929;SDS011;8064;51.142;4.780;2023-01-05T14:53:58;20.27;;;4.67;;
15929;SDS011;8064;51.142;4.780;2023-01-05T14:56:32;21.93;;;4.33;;
15929;SDS011;8064;51.142;4.780;2023-01-05T14:59:04;21.00;;;5.47;;
15929;SDS011;8064;51.142;4.780;2023-01-05T15:01:52;24.73;;;4.80;;
15929;SDS011;8064;51.142;4.780;2023-01-05T15:07:06;26.70;;;5.00;;
15929;SDS011;8064;51.142;4.780;2023-01-05T15:16:12;18.97;;;5.10;;
15929;SDS011;8064;51.142;4.780;2023-01-05T15:33:00;20.20;;;5.80;;
15929;SDS011;8064;51.142;4.780;2023-01-05T15:35:47;25.13;;;5.97;;
15929;SDS011;8064;51.142;4.780;2023-01-05T15:38:24;28.20;;;6.63;;
15929;SDS011;8064;51.142;4.780;2023-01-05T15:40:58;20.23;;;6.30;;
15929;SDS011;8064;51.142;4.780;2023-01-05T15:43:36;20.43;;;5.63;;
15929;SDS011;8064;51.142;4.780;2023-01-05T15:46:03;20.93;;;6.00;;
15929;SDS011;8064;51.142;4.780;2023-01-05T15:48:34;20.27;;;6.30;;
15929;SDS011;8064;51.142;4.780;2023-01-05T15:51:03;16.90;;;6.00;;
15929;SDS011;8064;51.142;4.780;2023-01-05T15:53:33;22.63;;;7.00;;
15929;SDS011;8064;51.142;4.780;2023-01-05T15:56:03;22.53;;;5.80;;
15929;SDS011;8064;51.142;4.780;2023-01-05T15:58:30;20.27;;;6.43;;
15929;SDS011;8064;51.142;4.780;2023-01-05T16:01:06;23.77;;;6.60;;
15929;SDS011;8064;51.142;4.780;2023-01-05T16:03:36;16.83;;;6.13;;
15929;SDS011;8064;51.142;4.780;2023-01-05T16:06:16;18.40;;;6.70;;
15929;SDS011;8064;51.142;4.780;2023-01-05T16:08:48;19.93;;;6.43;;
15929;SDS011;8064;51.142;4.780;2023-01-05T16:11:18;21.00;;;6.10;;
15929;SDS011;8064;51.142;4.780;2023-01-05T16:13:50;19.43;;;6.10;;
15929;SDS011;8064;51.142;4.780;2023-01-05T16:16:25;15.27;;;6.57;;
15929;SDS011;8064;51.142;4.780;2023-01-05T16:24:57;19.13;;;8.23;;
15929;SDS011;8064;51.142;4.780;2023-01-05T16:27:30;20.03;;;9.07;;
15929;SDS011;8064;51.142;4.780;2023-01-05T16:38:13;30.33;;;16.83;;
15929;SDS011;8064;51.142;4.780;2023-01-05T16:43:32;13.57;;;8.17;;
15929;SDS011;8064;51.142;4.780;2023-01-05T16:51:02;11.07;;;5.63;;
15929;SDS011;8064;51.142;4.780;2023-01-05T16:53:30;7.80;;;5.27;;
15929;SDS011;8064;51.142;4.780;2023-01-05T16:55:56;9.93;;;5.73;;
15929;SDS011;8064;51.142;4.780;2023-01-05T17:01:13;10.70;;;5.30;;
15929;SDS011;8064;51.142;4.780;2023-01-05T17:03:47;8.00;;;5.30;;
15929;SDS011;8064;51.142;4.780;2023-01-05T17:06:26;6.83;;;5.17;;
15929;SDS011;8064;51.142;4.780;2023-01-05T17:08:54;8.37;;;5.17;;
15929;SDS011;8064;51.142;4.780;2023-01-05T17:11:23;8.80;;;5.40;;
15929;SDS011;8064;51.142;4.780;2023-01-05T17:13:59;7.87;;;5.10;;
15929;SDS011;8064;51.142;4.780;2023-01-05T17:16:25;8.20;;;4.73;;
15929;SDS011;8064;51.142;4.780;2023-01-05T17:18:52;7.20;;;4.70;;
15929;SDS011;8064;51.142;4.780;2023-01-05T17:21:22;7.90;;;5.53;;
15929;SDS011;8064;51.142;4.780;2023-01-05T17:23:51;6.07;;;5.10;;
15929;SDS011;8064;51.142;4.780;2023-01-05T17:26:20;8.40;;;5.43;;
15929;SDS011;8064;51.142;4.780;2023-01-05T17:28:48;9.97;;;5.03;;
15929;SDS011;8064;51.142;4.780;2023-01-05T17:31:16;7.27;;;5.03;;
15929;SDS011;8064;51.142;4.780;2023-01-05T17:33:42;7.40;;;5.30;;
15929;SDS011;8064;51.142;4.780;2023-01-05T17:36:07;6.87;;;5.57;;
15929;SDS011;8064;51.142;4.780;2023-01-05T17:38:34;8.43;;;5.60;;
15929;SDS011;8064;51.142;4.780;2023-01-05T17:41:00;8.10;;;6.20;;
15929;SDS011;8064;51.142;4.780;2023-01-05T17:43:25;9.10;;;6.40;;
15929;SDS011;8064;51.142;4.780;2023-01-05T17:45:51;7.10;;;5.97;;
15929;SDS011;8064;51.142;4.780;2023-01-05T17:48:17;7.17;;;6.10;;
15929;SDS011;8064;51.142;4.780;2023-01-05T17:50:43;7.27;;;6.07;;
15929;SDS011;8064;51.142;4.780;2023-01-05T17:53:09;10.60;;;6.33;;
15929;SDS011;8064;51.142;4.780;2023-01-05T17:55:35;9.07;;;7.00;;
15929;SDS011;8064;51.142;4.780;2023-01-05T17:58:01;8.47;;;6.40;;
15929;SDS011;8064;51.142;4.780;2023-01-05T18:00:28;8.93;;;6.73;;
15929;SDS011;8064;51.142;4.780;2023-01-05T18:02:58;8.77;;;6.70;;
15929;SDS011;8064;51.142;4.780;2023-01-05T18:05:24;8.30;;;6.60;;
15929;SDS011;8064;51.142;4.780;2023-01-05T18:07:50;7.10;;;6.40;;
15929;SDS011;8064;51.142;4.780;2023-01-05T18:10:18;10.13;;;7.27;;
15929;SDS011;8064;51.142;4.780;2023-01-05T18:12:45;8.03;;;7.23;;
15929;SDS011;8064;51.142;4.780;2023-01-05T18:15:12;9.77;;;7.77;;
15929;SDS011;8064;51.142;4.780;2023-01-05T18:17:38;8.70;;;7.77;;
15929;SDS011;8064;51.142;4.780;2023-01-05T18:20:04;12.77;;;7.27;;
15929;SDS011;8064;51.142;4.780;2023-01-05T18:22:30;9.03;;;7.87;;
15929;SDS011;8064;51.142;4.780;2023-01-05T18:24:56;9.20;;;8.00;;